createdAt,value
2023-01-21T00:00:05.916Z,47.53
2023-01-21T00:01:05.875Z,48.02
2023-01-21T00:02:05.906Z,46.25
2023-01-21T00:03:05.963Z,47.05
2023-01-21T00:04:05.866Z,46.25
2023-01-21T00:05:05.853Z,44.96
2023-01-21T00:06:05.927Z,45.60
2023-01-21T00:07:06.474Z,45.92
2023-01-21T00:08:05.861Z,45.92
2023-01-21T00:09:05.827Z,46.73
2023-01-21T00:10:05.850Z,46.08
2023-01-21T00:11:05.957Z,46.25
2023-01-21T00:12:05.791Z,47.53
2023-01-21T00:13:05.809Z,47.05
2023-01-21T00:14:05.811Z,46.08
2023-01-21T00:15:05.802Z,47.70
2023-01-21T00:16:05.874Z,49.79
2023-01-21T00:17:05.843Z,47.53
2023-01-21T00:18:05.758Z,49.31
2023-01-21T00:19:05.795Z,50.27
2023-01-21T00:20:05.794Z,47.21
2023-01-21T00:21:05.746Z,47.05
2023-01-21T00:22:05.815Z,45.28
2023-01-21T00:23:05.755Z,45.44
2023-01-21T00:24:05.731Z,45.28
2023-01-21T00:25:05.738Z,45.76
2023-01-21T00:26:05.980Z,46.57
2023-01-21T00:27:05.728Z,47.05
2023-01-21T00:28:05.764Z,46.25
2023-01-21T00:29:05.742Z,47.05
2023-01-21T00:30:05.809Z,46.41
2023-01-21T00:31:06.160Z,45.92
2023-01-21T00:32:05.821Z,44.47
2023-01-21T00:33:05.724Z,44.96
2023-01-21T00:34:05.678Z,46.25
2023-01-21T00:35:05.783Z,45.92
2023-01-21T00:36:05.649Z,49.15
2023-01-21T00:37:05.710Z,47.37
2023-01-21T00:38:05.646Z,46.57
2023-01-21T00:39:05.646Z,46.41
2023-01-21T00:40:05.651Z,44.96
2023-01-21T00:41:05.625Z,44.79
2023-01-21T00:42:05.887Z,44.96
2023-01-21T00:43:05.636Z,45.12
2023-01-21T00:44:05.627Z,45.60
2023-01-21T00:45:05.671Z,45.12
2023-01-21T00:46:05.678Z,47.05
2023-01-21T00:47:05.647Z,47.21
2023-01-21T00:48:05.605Z,45.76
2023-01-21T00:49:05.608Z,45.44
2023-01-21T00:50:05.693Z,45.28
2023-01-21T00:51:05.671Z,45.92
2023-01-21T00:52:05.575Z,44.96
2023-01-21T00:53:05.593Z,45.92
2023-01-21T00:54:05.581Z,45.28
2023-01-21T00:55:05.547Z,44.96
2023-01-21T00:56:05.562Z,48.34
2023-01-21T00:57:05.625Z,45.92
2023-01-21T00:58:05.571Z,45.44
2023-01-21T00:59:05.534Z,45.60
2023-01-21T01:00:05.547Z,46.08
2023-01-21T01:01:05.513Z,46.73
2023-01-21T01:02:05.555Z,44.96
2023-01-21T01:03:05.515Z,45.12
2023-01-21T01:04:05.503Z,44.79
2023-01-21T01:05:05.502Z,45.76
2023-01-21T01:06:05.491Z,46.57
2023-01-21T01:07:05.535Z,47.37
2023-01-21T01:08:05.496Z,49.31
2023-01-21T01:09:05.465Z,45.28
2023-01-21T01:10:05.524Z,45.12
2023-01-21T01:11:05.526Z,45.28
2023-01-21T01:12:05.462Z,44.47
2023-01-21T01:13:06.403Z,45.28
2023-01-21T01:14:05.464Z,45.44
2023-01-21T01:15:05.442Z,43.83
2023-01-21T01:16:05.597Z,43.18
2023-01-21T01:17:05.449Z,44.31
2023-01-21T01:18:05.477Z,44.15
2023-01-21T01:19:05.410Z,44.96
2023-01-21T01:20:05.417Z,44.63
2023-01-21T01:21:05.387Z,43.34
2023-01-21T01:22:05.400Z,43.99
2023-01-21T01:23:06.055Z,44.31
2023-01-21T01:24:05.374Z,43.83
2023-01-21T01:25:05.404Z,46.08
2023-01-21T01:26:05.383Z,44.96
2023-01-21T01:27:05.351Z,44.96
2023-01-21T01:28:05.945Z,44.15
2023-01-21T01:29:05.326Z,43.99
2023-01-21T01:30:05.381Z,45.44
2023-01-21T01:31:05.500Z,45.60
2023-01-21T01:32:05.384Z,44.96
2023-01-21T01:33:05.350Z,44.31
2023-01-21T01:34:05.323Z,46.73
2023-01-21T01:35:05.307Z,45.92
2023-01-21T01:36:05.310Z,44.31
2023-01-21T01:37:05.336Z,46.41
2023-01-21T01:38:05.318Z,44.96
2023-01-21T01:39:05.294Z,45.76
2023-01-21T01:40:05.346Z,46.25
2023-01-21T01:41:05.349Z,46.89
2023-01-21T01:42:05.278Z,45.76
2023-01-21T01:43:05.282Z,44.63
2023-01-21T01:44:05.249Z,45.44
2023-01-21T01:45:05.281Z,45.76
2023-01-21T01:46:05.324Z,45.28
2023-01-21T01:47:05.247Z,45.44
2023-01-21T01:48:05.246Z,46.41
2023-01-21T01:49:05.287Z,46.57
2023-01-21T01:50:05.224Z,47.21
2023-01-21T01:51:05.322Z,45.76
2023-01-21T01:52:05.205Z,46.57
2023-01-21T01:53:05.243Z,47.37
2023-01-21T01:54:05.215Z,48.50
2023-01-21T01:55:05.199Z,48.34
2023-01-21T01:56:05.202Z,46.57
2023-01-21T01:57:05.162Z,47.05
2023-01-21T01:58:05.248Z,46.89
2023-01-21T01:59:05.165Z,45.92
2023-01-21T02:00:05.171Z,46.73
2023-01-21T02:01:05.183Z,48.02
2023-01-21T02:02:05.145Z,46.25
2023-01-21T02:03:05.124Z,45.60
2023-01-21T02:04:05.165Z,45.44
2023-01-21T02:05:05.145Z,45.76
2023-01-21T02:06:05.118Z,45.12
2023-01-21T02:07:05.112Z,46.41
2023-01-21T02:08:05.117Z,46.08
2023-01-21T02:09:05.082Z,46.57
2023-01-21T02:10:05.128Z,47.37
2023-01-21T02:11:05.113Z,46.08
2023-01-21T02:12:05.088Z,44.63
2023-01-21T02:13:05.101Z,45.12
2023-01-21T02:14:05.112Z,47.37
2023-01-21T02:15:05.059Z,46.08
2023-01-21T02:16:05.092Z,46.57
2023-01-21T02:17:05.038Z,44.79
2023-01-21T02:18:05.070Z,44.79
2023-01-21T02:19:05.034Z,42.86
2023-01-21T02:20:05.520Z,43.02
2023-01-21T02:21:05.166Z,44.47
2023-01-21T02:22:05.041Z,43.83
2023-01-21T02:23:05.008Z,42.54
2023-01-21T02:24:05.160Z,43.99
2023-01-21T02:25:05.463Z,43.67
2023-01-21T02:26:04.988Z,44.31
2023-01-21T02:27:05.027Z,44.63
2023-01-21T02:28:04.990Z,44.31
2023-01-21T02:29:05.195Z,44.31
2023-01-21T02:30:05.022Z,45.28
2023-01-21T02:31:05.096Z,44.96
2023-01-21T02:32:04.966Z,44.79
2023-01-21T02:33:04.951Z,44.96
2023-01-21T02:34:05.206Z,46.08
2023-01-21T02:35:04.982Z,44.15
2023-01-21T02:36:05.292Z,43.67
2023-01-21T02:37:05.106Z,43.51
2023-01-21T02:38:04.902Z,43.18
2023-01-21T02:39:04.913Z,43.67
2023-01-21T02:40:04.928Z,44.15
2023-01-21T02:41:04.919Z,43.67
2023-01-21T02:42:05.413Z,44.63
2023-01-21T02:43:04.903Z,45.28
2023-01-21T02:44:04.934Z,45.12
2023-01-21T02:45:04.917Z,43.67
2023-01-21T02:46:04.924Z,42.70
2023-01-21T02:47:04.855Z,44.31
2023-01-21T02:48:04.919Z,45.76
2023-01-21T02:49:04.872Z,45.28
2023-01-21T02:50:04.885Z,45.44
2023-01-21T02:51:04.907Z,44.63
2023-01-21T02:52:04.841Z,43.18
2023-01-21T02:53:04.835Z,43.18
2023-01-21T02:54:04.800Z,41.73
2023-01-21T02:55:04.809Z,43.34
2023-01-21T02:56:04.876Z,43.02
2023-01-21T02:57:04.812Z,46.25
2023-01-21T02:58:04.845Z,44.15
2023-01-21T02:59:04.982Z,44.15
2023-01-21T03:00:04.917Z,42.38
2023-01-21T03:01:04.799Z,42.38
2023-01-21T03:02:04.811Z,43.99
2023-01-21T03:03:04.812Z,43.51
2023-01-21T03:04:04.737Z,43.99
2023-01-21T03:05:04.792Z,42.06
2023-01-21T03:06:04.753Z,43.34
2023-01-21T03:07:04.732Z,45.12
2023-01-21T03:08:04.743Z,45.44
2023-01-21T03:09:04.758Z,43.83
2023-01-21T03:10:04.713Z,42.54
2023-01-21T03:11:04.793Z,42.54
2023-01-21T03:12:04.707Z,43.83
2023-01-21T03:13:04.719Z,43.18
2023-01-21T03:14:05.438Z,43.18
2023-01-21T03:15:04.747Z,43.02
2023-01-21T03:16:04.683Z,43.34
2023-01-21T03:17:04.696Z,43.51
2023-01-21T03:18:04.663Z,42.38
2023-01-21T03:19:04.660Z,42.06
2023-01-21T03:20:04.649Z,41.89
2023-01-21T03:21:04.675Z,42.22
2023-01-21T03:22:04.775Z,41.73
2023-01-21T03:23:04.660Z,42.86
2023-01-21T03:24:04.629Z,42.54
2023-01-21T03:25:04.656Z,43.51
2023-01-21T03:26:04.605Z,42.70
2023-01-21T03:27:04.637Z,42.38
2023-01-21T03:28:04.589Z,41.89
2023-01-21T03:29:04.742Z,42.38
2023-01-21T03:30:04.586Z,42.54
2023-01-21T03:31:04.738Z,42.54
2023-01-21T03:32:04.593Z,42.70
2023-01-21T03:33:04.557Z,43.18
2023-01-21T03:34:04.547Z,42.22
2023-01-21T03:35:04.567Z,40.93
2023-01-21T03:36:04.527Z,42.22
2023-01-21T03:37:04.577Z,42.38
2023-01-21T03:38:04.528Z,43.67
2023-01-21T03:39:04.537Z,43.34
2023-01-21T03:40:04.530Z,42.38
2023-01-21T03:41:04.908Z,42.22
2023-01-21T03:42:04.504Z,41.25
2023-01-21T03:43:04.511Z,41.25
2023-01-21T03:44:04.513Z,41.41
2023-01-21T03:45:04.526Z,39.96
2023-01-21T03:46:04.538Z,43.02
2023-01-21T03:47:04.529Z,41.89
2023-01-21T03:48:04.453Z,41.89
2023-01-21T03:49:04.485Z,40.77
2023-01-21T03:50:04.473Z,41.57
2023-01-21T03:51:04.469Z,42.54
2023-01-21T03:52:04.444Z,42.22
2023-01-21T03:53:04.459Z,42.06
2023-01-21T03:54:04.420Z,41.25
2023-01-21T03:55:04.437Z,41.41
2023-01-21T03:56:04.477Z,41.41
2023-01-21T03:57:04.513Z,43.67
2023-01-21T03:58:04.413Z,44.47
2023-01-21T03:59:04.416Z,43.99
2023-01-21T04:00:04.427Z,45.76
2023-01-21T04:01:04.439Z,43.99
2023-01-21T04:02:04.478Z,44.63
2023-01-21T04:03:04.415Z,42.86
2023-01-21T04:04:04.399Z,43.99
2023-01-21T04:05:04.364Z,43.18
2023-01-21T04:06:04.987Z,43.51
2023-01-21T04:07:04.340Z,43.18
2023-01-21T04:08:04.363Z,42.54
2023-01-21T04:09:04.345Z,44.15
2023-01-21T04:10:04.315Z,43.99
2023-01-21T04:11:04.350Z,44.79
2023-01-21T04:12:04.351Z,42.70
2023-01-21T04:13:04.405Z,42.06
2023-01-21T04:14:04.290Z,43.51
2023-01-21T04:15:05.555Z,43.99
2023-01-21T04:16:04.338Z,43.02
2023-01-21T04:17:04.312Z,40.44
2023-01-21T04:18:04.303Z,41.73
2023-01-21T04:19:04.323Z,43.34
2023-01-21T04:20:04.254Z,42.86
2023-01-21T04:21:04.244Z,43.02
2023-01-21T04:22:04.898Z,45.44
2023-01-21T04:23:04.245Z,43.99
2023-01-21T04:24:04.380Z,44.96
2023-01-21T04:25:04.236Z,44.63
2023-01-21T04:26:04.226Z,45.44
2023-01-21T04:27:04.214Z,43.51
2023-01-21T04:28:04.242Z,42.54
2023-01-21T04:29:04.318Z,43.18
2023-01-21T04:30:04.212Z,44.31
2023-01-21T04:31:04.246Z,44.63
2023-01-21T04:32:04.271Z,44.47
2023-01-21T04:33:04.190Z,42.54
2023-01-21T04:34:04.161Z,44.47
2023-01-21T04:35:04.222Z,45.60
2023-01-21T04:36:04.148Z,44.96
2023-01-21T04:37:04.176Z,43.67
2023-01-21T04:38:04.166Z,45.76
2023-01-21T04:39:04.135Z,43.99
2023-01-21T04:40:04.129Z,45.60
2023-01-21T04:41:04.111Z,44.15
2023-01-21T04:42:04.146Z,44.47
2023-01-21T04:43:04.142Z,45.12
2023-01-21T04:44:04.178Z,43.51
2023-01-21T04:45:04.097Z,43.02
2023-01-21T04:46:04.326Z,43.18
2023-01-21T04:47:04.166Z,43.99
2023-01-21T04:48:04.893Z,48.02
2023-01-21T04:49:04.089Z,47.37
2023-01-21T04:50:04.068Z,43.99
2023-01-21T04:51:04.163Z,45.76
2023-01-21T04:52:04.085Z,44.47
2023-01-21T04:53:04.100Z,45.92
2023-01-21T04:54:04.023Z,45.44
2023-01-21T04:55:04.075Z,43.51
2023-01-21T04:56:04.091Z,43.02
2023-01-21T04:57:04.045Z,42.06
2023-01-21T04:58:04.040Z,41.41
2023-01-21T04:59:04.058Z,43.02
2023-01-21T05:00:04.001Z,42.70
2023-01-21T05:01:04.062Z,42.86
2023-01-21T05:02:04.084Z,43.51
2023-01-21T05:03:03.964Z,43.34
2023-01-21T05:04:04.001Z,42.70
2023-01-21T05:05:03.974Z,42.86
2023-01-21T05:06:05.052Z,42.70
2023-01-21T05:07:03.983Z,41.89
2023-01-21T05:08:03.949Z,42.86
2023-01-21T05:09:03.956Z,44.47
2023-01-21T05:10:03.957Z,44.15
2023-01-21T05:11:03.952Z,41.57
2023-01-21T05:12:04.049Z,41.89
2023-01-21T05:13:03.945Z,42.54
2023-01-21T05:14:03.955Z,42.22
2023-01-21T05:15:03.951Z,42.22
2023-01-21T05:16:03.981Z,42.70
2023-01-21T05:17:04.051Z,43.34
2023-01-21T05:18:03.911Z,44.15
2023-01-21T05:19:03.915Z,43.99
2023-01-21T05:20:03.892Z,44.63
2023-01-21T05:21:03.969Z,42.54
2023-01-21T05:22:03.940Z,43.34
2023-01-21T05:23:03.900Z,42.86
2023-01-21T05:24:03.893Z,42.70
2023-01-21T05:25:03.854Z,41.73
2023-01-21T05:26:03.853Z,40.44
2023-01-21T05:27:03.953Z,42.54
2023-01-21T05:28:03.869Z,41.25
2023-01-21T05:29:03.869Z,40.28
2023-01-21T05:30:03.851Z,41.41
2023-01-21T05:31:04.008Z,41.73
2023-01-21T05:32:03.833Z,43.02
2023-01-21T05:33:03.851Z,43.51
2023-01-21T05:34:03.835Z,41.89
2023-01-21T05:35:03.816Z,42.70
2023-01-21T05:36:03.828Z,41.73
2023-01-21T05:37:03.788Z,42.54
2023-01-21T05:38:03.798Z,42.38
2023-01-21T05:39:03.829Z,42.38
2023-01-21T05:40:03.784Z,41.09
2023-01-21T05:41:03.799Z,43.34
2023-01-21T05:42:03.771Z,42.54
2023-01-21T05:43:05.374Z,41.73
2023-01-21T05:44:03.860Z,42.06
2023-01-21T05:45:03.790Z,41.89
2023-01-21T05:46:03.743Z,42.70
2023-01-21T05:47:03.736Z,43.67
2023-01-21T05:48:03.747Z,43.51
2023-01-21T05:49:03.709Z,42.54
2023-01-21T05:50:03.711Z,43.02
2023-01-21T05:51:03.796Z,43.67
2023-01-21T05:52:03.706Z,45.76
2023-01-21T05:53:03.710Z,44.63
2023-01-21T05:54:03.713Z,43.99
2023-01-21T05:55:03.723Z,46.08
2023-01-21T05:56:03.726Z,46.08
2023-01-21T05:57:03.692Z,46.25
2023-01-21T05:58:03.676Z,47.53
2023-01-21T05:59:03.783Z,47.05
2023-01-21T06:00:03.712Z,46.25
2023-01-21T06:01:03.658Z,48.82
2023-01-21T06:02:03.753Z,47.86
2023-01-21T06:03:03.664Z,49.31
2023-01-21T06:04:03.634Z,47.70
2023-01-21T06:05:03.645Z,44.63
2023-01-21T06:06:03.665Z,44.31
2023-01-21T06:07:03.619Z,45.76
2023-01-21T06:08:03.662Z,48.02
2023-01-21T06:09:03.636Z,45.28
2023-01-21T06:10:03.637Z,44.47
2023-01-21T06:11:03.663Z,45.60
2023-01-21T06:12:03.592Z,45.28
2023-01-21T06:13:03.609Z,44.96
2023-01-21T06:14:03.619Z,45.60
2023-01-21T06:15:03.632Z,46.08
2023-01-21T06:16:03.617Z,43.67
2023-01-21T06:17:03.578Z,43.83
2023-01-21T06:18:03.551Z,46.57
2023-01-21T06:19:03.599Z,44.63
2023-01-21T06:20:03.562Z,44.79
2023-01-21T06:21:03.591Z,45.60
2023-01-21T06:22:03.563Z,46.73
2023-01-21T06:23:03.587Z,45.76
2023-01-21T06:24:03.568Z,44.79
2023-01-21T06:25:03.544Z,45.28
2023-01-21T06:26:03.547Z,47.53
2023-01-21T06:27:04.070Z,47.05
2023-01-21T06:28:03.501Z,45.28
2023-01-21T06:29:03.508Z,42.54
2023-01-21T06:30:03.482Z,45.12
2023-01-21T06:31:03.566Z,44.79
2023-01-21T06:32:03.604Z,45.44
2023-01-21T06:33:03.477Z,45.92
2023-01-21T06:34:03.512Z,45.92
2023-01-21T06:35:03.478Z,45.76
2023-01-21T06:36:03.473Z,45.76
2023-01-21T06:37:03.463Z,45.12
2023-01-21T06:38:03.452Z,46.08
2023-01-21T06:39:04.411Z,45.92
2023-01-21T06:40:03.444Z,46.25
2023-01-21T06:41:03.443Z,45.28
2023-01-21T06:42:03.434Z,44.79
2023-01-21T06:43:03.448Z,43.02
2023-01-21T06:44:03.415Z,44.63
2023-01-21T06:45:03.406Z,45.44
2023-01-21T06:46:03.529Z,45.12
2023-01-21T06:47:03.504Z,46.57
2023-01-21T06:48:03.389Z,46.08
2023-01-21T06:49:03.933Z,45.60
2023-01-21T06:50:03.382Z,45.60
2023-01-21T06:51:03.496Z,45.44
2023-01-21T06:52:03.409Z,44.96
2023-01-21T06:53:03.934Z,43.83
2023-01-21T06:54:03.372Z,42.54
2023-01-21T06:55:03.402Z,44.15
2023-01-21T06:56:03.334Z,45.44
2023-01-21T06:57:03.337Z,44.47
2023-01-21T06:58:03.364Z,45.76
2023-01-21T06:59:03.370Z,45.92
2023-01-21T07:00:03.360Z,45.28
2023-01-21T07:01:03.456Z,44.31
2023-01-21T07:02:03.569Z,44.96
2023-01-21T07:03:03.383Z,45.12
2023-01-21T07:04:03.325Z,44.79
2023-01-21T07:05:03.356Z,44.15
2023-01-21T07:06:03.325Z,45.28
2023-01-21T07:07:03.298Z,45.28
2023-01-21T07:08:03.279Z,45.92
2023-01-21T07:09:03.283Z,46.08
2023-01-21T07:10:03.313Z,45.44
2023-01-21T07:11:03.306Z,46.25
2023-01-21T07:12:03.257Z,46.08
2023-01-21T07:13:03.354Z,44.15
2023-01-21T07:14:03.245Z,44.31
2023-01-21T07:15:03.269Z,43.83
2023-01-21T07:16:06.798Z,45.44
2023-01-21T07:17:03.236Z,47.21
2023-01-21T07:18:03.217Z,45.44
2023-01-21T07:19:03.231Z,45.44
2023-01-21T07:20:03.240Z,45.76
2023-01-21T07:21:03.237Z,45.44
2023-01-21T07:22:03.206Z,46.41
2023-01-21T07:23:03.226Z,44.79
2023-01-21T07:24:03.180Z,45.44
2023-01-21T07:25:03.199Z,45.76
2023-01-21T07:26:03.219Z,45.60
2023-01-21T07:27:03.169Z,44.96
2023-01-21T07:28:03.176Z,44.63
2023-01-21T07:29:03.175Z,53.66
2023-01-21T07:30:03.199Z,51.40
2023-01-21T07:31:03.427Z,45.60
2023-01-21T07:32:03.217Z,43.99
2023-01-21T07:33:03.151Z,44.31
2023-01-21T07:34:03.139Z,43.99
2023-01-21T07:35:03.131Z,43.02
2023-01-21T07:36:03.158Z,44.47
2023-01-21T07:37:03.295Z,44.96
2023-01-21T07:38:03.132Z,44.15
2023-01-21T07:39:03.103Z,44.96
2023-01-21T07:40:03.111Z,43.99
2023-01-21T07:41:03.120Z,43.02
2023-01-21T07:42:03.081Z,42.54
2023-01-21T07:43:03.091Z,42.06
2023-01-21T07:44:03.090Z,44.47
2023-01-21T07:45:03.144Z,43.18
2023-01-21T07:46:03.107Z,42.38
2023-01-21T07:47:03.093Z,41.89
2023-01-21T07:48:03.170Z,43.51
2023-01-21T07:49:03.084Z,44.63
2023-01-21T07:50:03.031Z,43.99
2023-01-21T07:51:03.125Z,44.63
2023-01-21T07:52:03.083Z,44.31
2023-01-21T07:53:03.026Z,43.83
2023-01-21T07:54:03.033Z,43.02
2023-01-21T07:55:03.036Z,43.34
2023-01-21T07:56:03.032Z,42.54
2023-01-21T07:57:03.044Z,44.15
2023-01-21T07:58:03.009Z,44.79
2023-01-21T07:59:03.003Z,44.63
2023-01-21T08:00:02.994Z,44.15
2023-01-21T08:01:03.053Z,44.31
2023-01-21T08:02:03.142Z,44.96
2023-01-21T08:03:03.024Z,44.15
2023-01-21T08:04:02.974Z,44.15
2023-01-21T08:05:02.960Z,43.51
2023-01-21T08:06:02.961Z,43.83
2023-01-21T08:07:02.946Z,44.96
2023-01-21T08:08:02.952Z,42.54
2023-01-21T08:09:03.480Z,43.51
2023-01-21T08:10:02.951Z,42.54
2023-01-21T08:11:02.998Z,43.51
2023-01-21T08:12:02.929Z,44.15
2023-01-21T08:13:03.104Z,42.70
2023-01-21T08:14:03.930Z,43.34
2023-01-21T08:15:02.927Z,43.18
2023-01-21T08:16:02.948Z,43.67
2023-01-21T08:17:02.935Z,47.53
2023-01-21T08:18:02.886Z,48.18
2023-01-21T08:19:03.456Z,43.99
2023-01-21T08:20:03.032Z,44.31
2023-01-21T08:21:02.974Z,44.63
2023-01-21T08:22:02.968Z,47.86
2023-01-21T08:23:02.928Z,47.53
2023-01-21T08:24:02.877Z,43.18
2023-01-21T08:25:02.972Z,43.02
2023-01-21T08:26:02.838Z,44.15
2023-01-21T08:27:02.828Z,43.18
2023-01-21T08:28:02.868Z,41.73
2023-01-21T08:29:02.945Z,41.25
2023-01-21T08:30:02.822Z,43.02
2023-01-21T08:31:10.084Z,42.38
2023-01-21T08:32:02.805Z,42.06
2023-01-21T08:33:04.376Z,40.77
2023-01-21T08:34:02.833Z,42.54
2023-01-21T08:35:02.822Z,42.06
2023-01-21T08:36:03.032Z,41.57
2023-01-21T08:37:02.883Z,41.73
2023-01-21T08:38:02.831Z,42.06
2023-01-21T08:39:02.762Z,42.22
2023-01-21T08:40:02.799Z,41.89
2023-01-21T08:41:02.767Z,41.41
2023-01-21T08:42:02.742Z,40.77
2023-01-21T08:43:02.772Z,40.93
2023-01-21T08:44:02.724Z,45.60
2023-01-21T08:45:02.992Z,45.60
2023-01-21T08:46:02.763Z,46.25
2023-01-21T08:47:02.728Z,42.38
2023-01-21T08:48:02.695Z,41.73
2023-01-21T08:49:02.747Z,41.57
2023-01-21T08:50:02.716Z,40.77
2023-01-21T08:51:02.754Z,41.09
2023-01-21T08:52:02.707Z,42.06
2023-01-21T08:53:02.666Z,41.41
2023-01-21T08:54:02.664Z,41.41
2023-01-21T08:55:02.667Z,40.61
2023-01-21T08:56:02.630Z,40.28
2023-01-21T08:57:02.642Z,40.93
2023-01-21T08:58:02.644Z,40.61
2023-01-21T08:59:03.634Z,40.44
2023-01-21T09:00:02.625Z,40.61
2023-01-21T09:01:02.675Z,40.28
2023-01-21T09:02:02.697Z,40.28
2023-01-21T09:03:02.630Z,41.25
2023-01-21T09:04:02.624Z,40.93
2023-01-21T09:05:02.680Z,40.28
2023-01-21T09:06:02.647Z,40.44
2023-01-21T09:07:02.695Z,39.80
2023-01-21T09:08:02.605Z,39.80
2023-01-21T09:09:02.603Z,40.77
2023-01-21T09:10:02.546Z,41.09
2023-01-21T09:11:02.630Z,40.61
2023-01-21T09:12:02.602Z,40.12
2023-01-21T09:13:02.591Z,40.28
2023-01-21T09:14:02.560Z,40.77
2023-01-21T09:15:02.540Z,41.41
2023-01-21T09:16:02.521Z,39.96
2023-01-21T09:17:02.576Z,40.93
2023-01-21T09:18:02.560Z,41.41
2023-01-21T09:19:02.530Z,40.77
2023-01-21T09:20:02.607Z,40.77
2023-01-21T09:21:02.526Z,40.77
2023-01-21T09:22:02.481Z,40.28
2023-01-21T09:23:02.488Z,41.25
2023-01-21T09:24:02.530Z,41.25
2023-01-21T09:25:02.465Z,41.25
2023-01-21T09:26:02.458Z,41.57
2023-01-21T09:27:02.441Z,40.93
2023-01-21T09:28:02.462Z,40.93
2023-01-21T09:29:02.500Z,41.41
2023-01-21T09:30:02.469Z,41.73
2023-01-21T09:31:02.553Z,42.54
2023-01-21T09:32:02.499Z,41.89
2023-01-21T09:33:02.426Z,42.54
2023-01-21T09:34:02.459Z,43.51
2023-01-21T09:35:02.383Z,42.38
2023-01-21T09:36:02.428Z,42.54
2023-01-21T09:37:02.444Z,42.22
2023-01-21T09:38:02.376Z,41.89
2023-01-21T09:39:02.418Z,42.38
2023-01-21T09:40:02.367Z,42.54
2023-01-21T09:41:02.469Z,44.15
2023-01-21T09:42:02.371Z,43.34
2023-01-21T09:43:02.347Z,44.15
2023-01-21T09:44:02.484Z,42.22
2023-01-21T09:45:02.356Z,42.06
2023-01-21T09:46:04.029Z,42.06
2023-01-21T09:47:02.326Z,43.18
2023-01-21T09:48:02.341Z,44.31
2023-01-21T09:49:02.300Z,44.31
2023-01-21T09:50:02.305Z,45.28
2023-01-21T09:51:02.358Z,42.86
2023-01-21T09:52:02.291Z,42.54
2023-01-21T09:53:02.372Z,42.06
2023-01-21T09:54:02.306Z,43.51
2023-01-21T09:55:02.301Z,45.12
2023-01-21T09:56:02.391Z,44.15
2023-01-21T09:57:02.277Z,43.51
2023-01-21T09:58:02.278Z,44.47
2023-01-21T09:59:02.256Z,44.96
2023-01-21T10:00:02.388Z,45.28
2023-01-21T10:01:02.270Z,45.28
2023-01-21T10:02:02.319Z,45.28
2023-01-21T10:03:02.356Z,44.79
2023-01-21T10:04:02.207Z,43.34
2023-01-21T10:05:02.219Z,43.83
2023-01-21T10:06:02.205Z,44.15
2023-01-21T10:07:02.168Z,43.67
2023-01-21T10:08:02.202Z,43.02
2023-01-21T10:09:02.171Z,43.34
2023-01-21T10:10:02.277Z,43.34
2023-01-21T10:11:02.180Z,43.83
2023-01-21T10:12:02.158Z,43.99
2023-01-21T10:13:02.220Z,43.51
2023-01-21T10:14:02.126Z,44.15
2023-01-21T10:15:02.132Z,44.15
2023-01-21T10:16:02.977Z,42.86
2023-01-21T10:17:02.124Z,42.86
2023-01-21T10:18:02.141Z,43.51
2023-01-21T10:19:02.099Z,43.51
2023-01-21T10:20:02.114Z,42.86
2023-01-21T10:21:02.170Z,41.25
2023-01-21T10:22:02.299Z,43.51
2023-01-21T10:23:02.080Z,42.54
2023-01-21T10:24:02.108Z,43.18
2023-01-21T10:25:02.039Z,43.02
2023-01-21T10:26:02.205Z,43.34
2023-01-21T10:27:02.080Z,43.02
2023-01-21T10:28:02.024Z,42.54
2023-01-21T10:29:02.033Z,43.02
2023-01-21T10:30:02.097Z,43.18
2023-01-21T10:31:02.170Z,44.15
2023-01-21T10:32:02.078Z,44.15
2023-01-21T10:33:02.098Z,44.15
2023-01-21T10:34:01.980Z,44.63
2023-01-21T10:35:01.973Z,43.83
2023-01-21T10:36:02.066Z,43.18
2023-01-21T10:37:01.956Z,43.02
2023-01-21T10:38:01.965Z,44.15
2023-01-21T10:39:01.947Z,43.51
2023-01-21T10:40:02.257Z,42.54
2023-01-21T10:41:01.933Z,43.51
2023-01-21T10:42:01.923Z,43.51
2023-01-21T10:43:01.933Z,43.34
2023-01-21T10:44:01.935Z,44.31
2023-01-21T10:45:01.903Z,44.31
2023-01-21T10:46:01.921Z,43.18
2023-01-21T10:47:01.925Z,42.70
2023-01-21T10:48:01.917Z,44.15
2023-01-21T10:49:01.857Z,45.76
2023-01-21T10:50:02.002Z,45.28
2023-01-21T10:51:02.006Z,43.67
2023-01-21T10:52:01.862Z,42.38
2023-01-21T10:53:01.861Z,43.51
2023-01-21T10:54:01.850Z,44.15
2023-01-21T10:55:01.889Z,43.51
2023-01-21T10:56:01.862Z,44.15
2023-01-21T10:57:01.809Z,43.34
2023-01-21T10:58:01.945Z,42.70
2023-01-21T10:59:01.833Z,42.06
2023-01-21T11:00:01.820Z,51.08
2023-01-21T11:01:01.900Z,42.22
2023-01-21T11:02:01.830Z,43.34
2023-01-21T11:03:01.763Z,42.86
2023-01-21T11:04:01.779Z,43.02
2023-01-21T11:05:01.770Z,40.93
2023-01-21T11:06:01.774Z,40.93
2023-01-21T11:07:01.763Z,41.57
2023-01-21T11:08:01.769Z,40.93
2023-01-21T11:09:01.776Z,40.77
2023-01-21T11:10:01.743Z,42.06
2023-01-21T11:11:01.760Z,40.12
2023-01-21T11:12:02.058Z,41.73
2023-01-21T11:13:01.790Z,41.89
2023-01-21T11:14:01.697Z,42.22
2023-01-21T11:15:01.705Z,41.73
2023-01-21T11:16:01.814Z,41.25
2023-01-21T11:17:01.695Z,53.98
2023-01-21T11:18:01.725Z,40.28
2023-01-21T11:19:01.659Z,40.12
2023-01-21T11:20:01.644Z,39.64
2023-01-21T11:21:01.639Z,40.28
2023-01-21T11:22:01.663Z,40.28
2023-01-21T11:23:01.646Z,39.48
2023-01-21T11:24:01.629Z,39.64
2023-01-21T11:25:01.630Z,40.28
2023-01-21T11:26:01.615Z,39.48
2023-01-21T11:27:01.776Z,39.16
2023-01-21T11:28:01.633Z,39.48
2023-01-21T11:29:01.622Z,38.83
2023-01-21T11:30:01.570Z,39.80
2023-01-21T11:31:01.711Z,38.51
2023-01-21T11:32:01.799Z,38.67
2023-01-21T11:33:01.568Z,38.19
2023-01-21T11:34:01.627Z,38.51
2023-01-21T11:35:01.560Z,38.83
2023-01-21T11:36:01.556Z,38.51
2023-01-21T11:37:01.594Z,39.32
2023-01-21T11:38:01.587Z,40.77
2023-01-21T11:39:01.916Z,38.99
2023-01-21T11:40:02.417Z,39.16
2023-01-21T11:41:01.504Z,38.99
2023-01-21T11:42:01.481Z,38.51
2023-01-21T11:43:01.594Z,39.48
2023-01-21T11:44:01.470Z,38.99
2023-01-21T11:45:01.501Z,40.61
2023-01-21T11:46:01.614Z,40.61
2023-01-21T11:47:01.555Z,40.28
2023-01-21T11:48:01.485Z,40.44
2023-01-21T11:49:01.511Z,40.12
2023-01-21T11:50:01.429Z,39.64
2023-01-21T11:51:01.491Z,39.32
2023-01-21T11:52:01.462Z,38.51
2023-01-21T11:53:02.027Z,38.99
2023-01-21T11:54:01.395Z,39.48
2023-01-21T11:55:01.422Z,39.80
2023-01-21T11:56:01.395Z,40.77
2023-01-21T11:57:01.393Z,41.09
2023-01-21T11:58:01.383Z,40.44
2023-01-21T11:59:01.406Z,41.57
2023-01-21T12:00:01.404Z,42.22
2023-01-21T12:01:01.372Z,41.89
2023-01-21T12:02:01.376Z,40.44
2023-01-21T12:03:02.213Z,41.57
2023-01-21T12:04:01.403Z,41.57
2023-01-21T12:05:01.362Z,42.06
2023-01-21T12:06:01.370Z,42.86
2023-01-21T12:07:01.362Z,41.73
2023-01-21T12:08:01.321Z,40.93
2023-01-21T12:09:01.358Z,41.73
2023-01-21T12:10:01.306Z,41.25
2023-01-21T12:11:01.316Z,41.25
2023-01-21T12:12:01.306Z,40.77
2023-01-21T12:13:01.296Z,40.77
2023-01-21T12:14:01.261Z,40.77
2023-01-21T12:15:01.339Z,41.57
2023-01-21T12:16:01.387Z,41.73
2023-01-21T12:17:01.282Z,41.57
2023-01-21T12:18:01.278Z,41.73
2023-01-21T12:19:01.300Z,41.89
2023-01-21T12:20:01.239Z,41.09
2023-01-21T12:21:01.241Z,41.73
2023-01-21T12:22:01.231Z,42.22
2023-01-21T12:23:01.224Z,41.89
2023-01-21T12:24:01.380Z,41.89
2023-01-21T12:25:01.229Z,41.89
2023-01-21T12:26:01.216Z,41.73
2023-01-21T12:27:01.220Z,42.06
2023-01-21T12:28:01.174Z,42.38
2023-01-21T12:29:01.168Z,41.41
2023-01-21T12:30:01.159Z,42.38
2023-01-21T12:31:01.360Z,43.67
2023-01-21T12:32:01.190Z,42.70
2023-01-21T12:33:01.181Z,41.89
2023-01-21T12:34:01.178Z,41.89
2023-01-21T12:35:01.278Z,41.25
2023-01-21T12:36:01.138Z,41.25
2023-01-21T12:37:01.134Z,41.25
2023-01-21T12:38:01.100Z,41.09
2023-01-21T12:39:01.150Z,41.73
2023-01-21T12:40:01.107Z,42.06
2023-01-21T12:41:01.089Z,43.34
2023-01-21T12:42:01.129Z,46.89
2023-01-21T12:43:01.151Z,42.54
2023-01-21T12:44:01.075Z,41.73
2023-01-21T12:45:01.511Z,41.57
2023-01-21T12:46:01.067Z,42.54
2023-01-21T12:47:01.205Z,42.06
2023-01-21T12:48:01.083Z,42.86
2023-01-21T12:49:02.275Z,42.38
2023-01-21T12:50:01.045Z,42.38
2023-01-21T12:51:01.074Z,43.18
2023-01-21T12:52:01.025Z,43.34